Time;durP1;ratioP1;P1;durP2;ratioP2;P2;SDS_P1;SDS_P2;PMS_P1;PMS_P2;Temp;Humidity;BMP_temperature;BMP_pressure;BME280_temperature;BME280_humidity;BME280_pressure;Samples;Min_cycle;Max_cycle;Signal;HPM_P1;HPM_P2
2023/09/07 00:00:47;;;;;;;14.83;8.85;;;;;;;15.15;75.04;101251.34;1768081;80;25483;-53
2023/09/07 00:03:16;;;;;;;15.58;9.53;;;;;;;15.11;75.15;101247.89;1768143;80;25630;-56
2023/09/07 00:05:42;;;;;;;13.35;8.70;;;;;;;15.10;75.51;101256.38;1768094;80;27503;-56
2023/09/07 00:08:08;;;;;;;13.83;9.45;;;;;;;15.09;75.64;101256.15;1767984;80;25525;-56
2023/09/07 00:10:37;;;;;;;22.25;9.20;;;;;;;15.06;75.48;101261.66;1768123;80;25540;-55
2023/09/07 00:13:04;;;;;;;15.55;9.40;;;;;;;15.02;75.48;101257.17;1768125;81;25571;-54
2023/09/07 00:15:37;;;;;;;15.83;9.55;;;;;;;15.02;75.85;101262.62;1768099;81;25613;-55
2023/09/07 00:18:05;;;;;;;16.30;10.23;;;;;;;15.02;75.91;101263.98;1768130;81;28115;-55
2023/09/07 00:20:33;;;;;;;20.95;11.40;;;;;;;15.00;76.66;101262.94;1768008;80;25387;-54
2023/09/07 00:23:01;;;;;;;18.02;12.80;;;;;;;15.00;77.12;101258.03;1768082;80;25365;-54
2023/09/07 00:25:27;;;;;;;18.25;10.55;;;;;;;15.02;77.84;101263.98;1768056;81;25627;-55
2023/09/07 00:27:54;;;;;;;24.20;14.93;;;;;;;15.04;77.48;101256.30;1768132;80;25569;-54
2023/09/07 00:30:20;;;;;;;25.30;18.82;;;;;;;15.05;77.64;101265.52;1768082;80;27511;-56
2023/09/07 00:32:46;;;;;;;24.32;17.98;;;;;;;15.07;77.61;101261.12;1767940;81;25386;-56
2023/09/07 00:35:12;;;;;;;24.98;15.28;;;;;;;15.06;77.26;101258.93;1768060;80;25581;-56
2023/09/07 00:37:39;;;;;;;19.20;12.63;;;;;;;15.06;77.45;101260.86;1768022;81;25556;-56
2023/09/07 00:40:11;;;;;;;19.25;14.18;;;;;;;15.07;77.64;101255.10;1768055;80;25539;-57
2023/09/07 00:42:37;;;;;;;20.90;13.05;;;;;;;15.09;77.63;101262.39;1768132;80;28107;-56
2023/09/07 00:45:06;;;;;;;16.55;10.65;;;;;;;15.10;77.57;101257.20;1767979;80;25843;-57
2023/09/07 00:47:36;;;;;;;16.23;10.00;;;;;;;15.11;77.26;101260.72;1768142;79;25634;-57
2023/09/07 00:50:05;;;;;;;13.62;9.80;;;;;;;15.11;77.22;101258.79;1768194;81;26048;-54
2023/09/07 00:52:33;;;;;;;15.13;10.30;;;;;;;15.11;77.14;101260.15;1768237;81;25415;-55
2023/09/07 00:55:07;;;;;;;14.55;9.85;;;;;;;15.13;77.19;101255.75;1768088;81;28065;-55
2023/09/07 00:57:32;;;;;;;14.05;8.93;;;;;;;15.12;77.18;101257.68;1767110;80;25386;-56
2023/09/07 00:59:58;;;;;;;14.58;9.30;;;;;;;15.08;76.67;101260.78;1768249;80;25594;-55
2023/09/07 01:02:25;;;;;;;16.67;11.95;;;;;;;15.02;76.47;101256.61;1768160;81;25630;-55
2023/09/07 01:04:52;;;;;;;13.83;9.40;;;;;;;15.00;76.72;101261.58;1768278;80;25394;-56
2023/09/07 01:07:26;;;;;;;15.28;10.63;;;;;;;14.98;76.91;101251.53;1768229;80;27500;-53
2023/09/07 01:09:57;;;;;;;18.20;10.23;;;;;;;14.96;76.71;101258.42;1768196;80;25812;-56
2023/09/07 01:12:24;;;;;;;14.00;9.65;;;;;;;14.93;76.63;101257.12;1768262;80;25526;-55
2023/09/07 01:14:50;;;;;;;12.28;9.13;;;;;;;14.90;76.75;101259.13;1768118;81;25554;-55
2023/09/07 01:17:17;;;;;;;16.20;9.43;;;;;;;14.85;76.74;101254.63;1768264;80;25538;-55
2023/09/07 01:19:46;;;;;;;18.27;10.10;;;;;;;14.84;76.85;101257.66;1750660;81;28162;-55
2023/09/07 01:22:14;;;;;;;17.17;9.93;;;;;;;14.80;76.98;101256.12;1768360;80;25384;-56
2023/09/07 01:24:43;;;;;;;13.15;9.23;;;;;;;14.76;76.98;101252.41;1768207;80;25448;-54
2023/09/07 01:27:10;;;;;;;15.67;9.23;;;;;;;14.76;77.15;101252.41;1768424;81;25600;-54
2023/09/07 01:29:37;;;;;;;13.80;9.03;;;;;;;14.74;77.39;101255.47;1768235;80;25557;-54
2023/09/07 01:32:06;;;;;;;17.40;9.45;;;;;;;14.77;77.61;101261.40;1768163;81;27528;-57
2023/09/07 01:34:32;;;;;;;12.80;9.53;;;;;;;14.78;77.58;101260.27;1768317;80;25464;-57
2023/09/07 01:36:58;;;;;;;15.00;9.15;;;;;;;14.78;77.37;101254.28;1768173;80;25445;-56
2023/09/07 01:39:26;;;;;;;13.48;8.55;;;;;;;14.77;77.27;101259.47;1768199;80;25570;-58
2023/09/07 01:41:52;;;;;;;17.77;9.88;;;;;;;14.79;77.31;101265.40;1768246;80;25472;-57
2023/09/07 01:44:19;;;;;;;14.75;9.63;;;;;;;14.79;77.28;101255.07;1768162;80;27460;-55
2023/09/07 01:46:45;;;;;;;13.45;8.63;;;;;;;14.79;77.24;101263.23;1769386;79;25413;-57
2023/09/07 01:49:11;;;;;;;17.25;9.43;;;;;;;14.74;77.09;101262.27;1800373;79;25442;-56
2023/09/07 01:51:38;;;;;;;14.25;9.38;;;;;;;14.76;77.38;101264.66;1800236;79;25606;-57
2023/09/07 01:54:05;;;;;;;17.15;10.28;;;;;;;14.77;77.38;101263.55;1800299;79;25380;-55
2023/09/07 01:56:31;;;;;;;16.70;9.73;;;;;;;14.76;77.16;101261.94;1800301;79;27443;-55
2023/09/07 01:58:57;;;;;;;12.20;9.30;;;;;;;14.74;77.17;101263.63;1800184;79;25597;-55
2023/09/07 02:01:29;;;;;;;14.65;9.80;;;;;;;14.73;77.37;101265.31;1800350;79;25534;-55
2023/09/07 02:03:56;;;;;;;16.60;10.50;;;;;;;14.73;77.43;101266.67;1800229;79;25526;-55
2023/09/07 02:06:22;;;;;;;13.58;9.00;;;;;;;14.70;77.24;101257.19;1800388;79;25612;-55
2023/09/07 02:08:49;;;;;;;11.65;8.88;;;;;;;14.71;77.49;101263.43;1800280;79;27519;-57
2023/09/07 02:11:15;;;;;;;16.10;9.33;;;;;;;14.70;77.52;101265.36;1800194;79;25560;-55
2023/09/07 02:13:43;;;;;;;16.27;9.48;;;;;;;14.68;77.39;101261.36;1800242;79;25363;-57
2023/09/07 02:16:10;;;;;;;15.65;9.38;;;;;;;14.66;77.58;101255.40;1800269;79;25633;-55
2023/09/07 02:18:39;;;;;;;13.28;9.80;;;;;;;14.68;77.57;101258.64;1800281;79;25386;-55
2023/09/07 02:21:06;;;;;;;12.80;9.90;;;;;;;14.66;77.50;101256.77;1800381;79;27466;-57
2023/09/07 02:23:33;;;;;;;15.28;9.98;;;;;;;14.67;77.72;101257.81;1800229;79;25471;-55
2023/09/07 02:26:00;;;;;;;15.10;10.38;;;;;;;14.66;77.63;101253.50;1800239;79;25432;-56
2023/09/07 02:28:26;;;;;;;16.02;9.88;;;;;;;14.66;77.57;101262.20;1800243;79;26015;-55
2023/09/07 02:30:53;;;;;;;13.78;9.33;;;;;;;14.64;77.51;101261.19;1800340;79;25628;-57
2023/09/07 02:33:20;;;;;;;16.30;11.12;;;;;;;14.64;77.49;101260.36;1800268;79;27580;-57
2023/09/07 02:35:49;;;;;;;13.22;10.23;;;;;;;14.63;77.49;101262.29;1800171;79;25596;-56
2023/09/07 02:38:16;;;;;;;19.55;12.43;;;;;;;14.61;77.34;101259.62;1800321;79;25417;-56
2023/09/07 02:40:44;;;;;;;26.23;18.10;;;;;;;14.57;77.12;101267.58;1800519;79;27607;-57
2023/09/07 02:43:11;;;;;;;23.12;16.87;;;;;;;14.53;76.91;101265.25;1800882;79;25398;-58
2023/09/07 02:45:39;;;;;;;22.05;16.12;;;;;;;14.49;77.13;101265.07;1800784;79;27348;-57
2023/09/07 02:48:06;;;;;;;31.90;19.82;;;;;;;14.49;77.27;101261.52;1800236;78;25826;-56
2023/09/07 02:50:35;;;;;;;18.87;12.93;;;;;;;14.46;77.32;101264.33;1800304;79;25552;-55
2023/09/07 02:53:04;;;;;;;20.40;14.07;;;;;;;14.44;77.26;101265.73;1800359;79;25815;-57
2023/09/07 02:55:30;;;;;;;19.13;15.37;;;;;;;14.43;77.28;101275.83;1800541;79;25555;-58
2023/09/07 02:57:57;;;;;;;18.70;13.60;;;;;;;14.42;77.38;101274.24;1800263;79;27568;-56
2023/09/07 03:00:24;;;;;;;20.30;14.45;;;;;;;14.41;77.45;101268.54;1800206;79;25449;-54
2023/09/07 03:02:52;;;;;;;23.45;14.85;;;;;;;14.41;77.47;101269.90;1800254;79;25643;-55
2023/09/07 03:05:18;;;;;;;23.92;15.80;;;;;;;14.39;77.58;101269.41;1800257;79;25984;-55
2023/09/07 03:07:47;;;;;;;16.30;11.80;;;;;;;14.37;77.49;101267.00;1800290;78;25529;-55
2023/09/07 03:10:15;;;;;;;15.60;9.85;;;;;;;14.37;77.47;101273.80;1800389;79;31018;-55
2023/09/07 03:12:41;;;;;;;14.03;10.38;;;;;;;14.33;77.22;101276.09;1800169;79;25427;-56
2023/09/07 03:15:10;;;;;;;13.38;10.38;;;;;;;14.28;77.09;101281.66;1800240;79;25453;-56
2023/09/07 03:17:37;;;;;;;16.57;11.88;;;;;;;14.25;77.01;101284.45;1769088;79;25665;-54
2023/09/07 03:20:24;;;;;;;19.92;10.75;;;;;;;14.22;76.73;101291.88;1800324;79;25429;-57
2023/09/07 03:22:37;;;;;;;23.25;11.43;;;;;;;14.19;76.76;101290.56;1794595;79;27703;-57
2023/09/07 03:25:06;;;;;;;13.83;10.40;;;;;;;14.16;77.05;101290.38;1800169;79;25863;-56
2023/09/07 03:27:33;;;;;;;18.10;11.57;;;;;;;14.12;76.98;101290.19;1800404;79;25545;-58
2023/09/07 03:29:59;;;;;;;16.97;11.38;;;;;;;14.09;77.17;101294.09;1800227;79;25519;-57
2023/09/07 03:32:31;;;;;;;16.37;11.20;;;;;;;14.04;77.25;101291.48;1800398;79;25589;-57
2023/09/07 03:34:54;;;;;;;15.55;11.20;;;;;;;13.97;77.51;101296.78;1799266;79;27537;-55
2023/09/07 03:37:21;;;;;;;15.25;10.88;;;;;;;13.95;77.80;101293.58;1800140;79;25754;-56
2023/09/07 03:39:47;;;;;;;15.80;11.03;;;;;;;13.91;77.62;101293.12;1800217;79;25369;-56
2023/09/07 03:42:13;;;;;;;18.45;11.48;;;;;;;13.88;78.00;101294.56;1800280;78;25649;-54
2023/09/07 03:44:40;;;;;;;14.55;10.32;;;;;;;13.86;78.21;101287.80;1800361;79;25421;-54
2023/09/07 03:47:06;;;;;;;13.85;10.93;;;;;;;13.85;78.21;101291.09;1800243;79;28074;-54
2023/09/07 03:49:32;;;;;;;17.37;11.75;;;;;;;13.83;78.25;101294.67;1800058;78;25403;-54
2023/09/07 03:51:58;;;;;;;20.35;11.33;;;;;;;13.81;78.15;101299.05;1800251;79;25459;-56
2023/09/07 03:54:24;;;;;;;11.57;9.53;;;;;;;13.79;78.05;101303.17;1800159;79;27692;-54
2023/09/07 03:56:50;;;;;;;14.98;9.03;;;;;;;13.76;77.77;101304.61;1800268;79;25599;-56
2023/09/07 03:59:16;;;;;;;13.55;9.95;;;;;;;13.74;77.53;101301.39;1800270;79;28125;-54
2023/09/07 04:01:43;;;;;;;15.65;10.63;;;;;;;13.71;77.39;101295.20;1800128;78;25386;-55
2023/09/07 04:04:09;;;;;;;14.47;10.08;;;;;;;13.68;77.32;101303.97;1800243;79;25605;-57
2023/09/07 04:06:35;;;;;;;16.17;10.35;;;;;;;13.63;77.38;101291.28;1800208;79;26083;-54
2023/09/07 04:09:01;;;;;;;18.73;10.32;;;;;;;13.60;77.55;101298.70;1800243;79;25556;-53
2023/09/07 04:11:27;;;;;;;17.67;10.88;;;;;;;13.56;77.68;101294.17;1800224;79;27899;-56
2023/09/07 04:13:54;;;;;;;12.75;9.70;;;;;;;13.52;77.46;101300.78;1800082;79;25844;-54
2023/09/07 04:16:20;;;;;;;19.35;9.93;;;;;;;13.49;77.52;101298.66;1800199;79;25658;-55
2023/09/07 04:18:46;;;;;;;13.88;10.65;;;;;;;13.45;77.36;101299.03;1800167;79;25544;-57
2023/09/07 04:21:12;;;;;;;13.98;9.95;;;;;;;13.43;77.56;101296.62;1800261;79;25522;-57
2023/09/07 04:23:38;;;;;;;15.40;11.33;;;;;;;13.40;78.03;101297.22;1800267;79;27528;-55
2023/09/07 04:26:09;;;;;;;15.58;10.55;;;;;;;13.38;78.11;101302.16;1800217;79;25609;-55
2023/09/07 04:28:37;;;;;;;14.45;10.03;;;;;;;13.37;78.01;101298.38;1799455;79;25361;-60
2023/09/07 04:31:06;;;;;;;13.00;9.58;;;;;;;13.36;78.03;101302.99;1800235;79;25604;-60
2023/09/07 04:33:33;;;;;;;15.00;10.93;;;;;;;13.34;77.98;101298.98;1800597;78;25444;-55
2023/09/07 04:36:12;;;;;;;13.83;10.05;;;;;;;13.32;78.11;101307.99;1800416;79;27538;-59
2023/09/07 04:38:40;;;;;;;12.73;10.00;;;;;;;13.29;78.07;101305.28;1800479;79;33232;-58
2023/09/07 04:41:12;;;;;;;15.72;10.25;;;;;;;13.30;78.39;101304.72;1776083;77;27257;-57
2023/09/07 04:43:44;;;;;;;18.37;10.70;;;;;;;13.29;78.82;101306.64;1738525;82;25581;-55
2023/09/07 04:46:13;;;;;;;11.97;10.10;;;;;;;13.29;78.80;101306.64;1738621;82;25413;-57
2023/09/07 04:48:41;;;;;;;14.58;10.70;;;;;;;13.32;79.22;101307.99;1738658;82;27636;-59
2023/09/07 04:51:09;;;;;;;19.20;11.18;;;;;;;13.33;79.25;101318.56;1711280;82;25627;-53
2023/09/07 04:53:39;;;;;;;19.37;13.40;;;;;;;13.34;79.47;101313.36;1738734;82;25585;-58
2023/09/07 04:56:08;;;;;;;18.15;11.97;;;;;;;13.38;79.79;101317.63;1738616;82;25544;-55
2023/09/07 04:58:35;;;;;;;15.28;11.97;;;;;;;13.40;80.00;101323.03;1738683;82;25587;-58
2023/09/07 05:01:08;;;;;;;15.05;11.22;;;;;;;13.44;80.08;101319.16;1738527;82;27486;-55
2023/09/07 05:03:36;;;;;;;19.62;11.70;;;;;;;13.49;80.13;101319.61;1738476;82;25621;-57
2023/09/07 05:06:04;;;;;;;18.92;12.28;;;;;;;13.55;80.30;101333.33;1738529;82;25409;-54
2023/09/07 05:08:31;;;;;;;15.85;10.72;;;;;;;13.61;80.52;101332.13;1738484;82;26141;-55
2023/09/07 05:11:01;;;;;;;16.85;12.23;;;;;;;13.67;80.39;101336.33;1738520;82;25588;-57
2023/09/07 05:13:27;;;;;;;;;;;;;;;13.72;80.51;101337.58;1740535;82;27560;-55
2023/09/07 05:15:55;;;;;;;15.75;11.57;;;;;;;13.76;80.87;101338.59;1737293;81;25616;-57
2023/09/07 05:18:23;;;;;;;15.72;11.78;;;;;;;13.81;80.78;101341.20;1737839;82;25626;-55
2023/09/07 05:20:51;;;;;;;13.98;11.63;;;;;;;13.87;80.83;101339.17;1737833;82;25722;-57
2023/09/07 05:23:19;;;;;;;14.30;11.78;;;;;;;13.92;80.92;101345.06;1737928;82;25616;-54
2023/09/07 05:25:52;;;;;;;13.98;10.93;;;;;;;13.97;81.16;101340.87;1737829;82;27412;-57
2023/09/07 05:28:20;;;;;;;20.12;13.78;;;;;;;14.06;81.49;101342.30;1738141;82;25711;-54
2023/09/07 05:30:47;;;;;;;18.02;12.05;;;;;;;14.17;81.88;101345.84;1738504;82;25609;-53
2023/09/07 05:33:18;;;;;;;18.30;12.07;;;;;;;14.30;82.01;101337.93;1738472;82;25563;-55
2023/09/07 05:35:47;;;;;;;15.50;12.10;;;;;;;14.41;82.23;101341.23;1738518;82;25469;-53
2023/09/07 05:38:14;;;;;;;18.23;11.95;;;;;;;14.50;82.25;101342.08;1738603;82;27523;-55
2023/09/07 05:40:44;;;;;;;16.48;11.83;;;;;;;14.64;82.50;101336.59;1737713;82;25629;-53
2023/09/07 05:43:11;;;;;;;;;;;;;;;14.81;82.68;101345.43;1738195;82;25588;-54
2023/09/07 05:45:41;;;;;;;24.47;14.50;;;;;;;14.98;83.45;101347.44;1735595;82;25668;-54
2023/09/07 05:48:09;;;;;;;18.62;14.68;;;;;;;15.13;83.21;101345.10;1735677;82;25460;-55
2023/09/07 05:50:38;;;;;;;19.32;14.20;;;;;;;15.33;83.12;101350.33;1735601;82;28134;-54
2023/09/07 05:53:05;;;;;;;17.67;13.83;;;;;;;15.48;82.89;101354.78;1735064;82;33246;-57
2023/09/07 05:55:32;;;;;;;21.52;14.35;;;;;;;15.65;82.94;101350.51;1735012;82;25850;-57
2023/09/07 05:57:59;;;;;;;20.02;13.45;;;;;;;15.85;82.82;101351.84;1735558;82;25868;-57
2023/09/07 06:00:26;;;;;;;19.45;13.32;;;;;;;16.06;82.74;101365.68;1735626;81;25645;-55
2023/09/07 06:02:53;;;;;;;21.55;14.53;;;;;;;16.27;82.87;101359.59;1735656;82;27498;-55
2023/09/07 06:05:19;;;;;;;20.50;13.80;;;;;;;16.48;82.48;101352.36;1735500;82;25498;-56
2023/09/07 06:07:46;;;;;;;22.10;14.83;;;;;;;16.69;82.25;101355.77;1735562;82;25424;-58
2023/09/07 06:10:12;;;;;;;21.73;15.43;;;;;;;16.90;81.84;101354.54;1735526;82;25650;-57
2023/09/07 06:12:39;;;;;;;24.02;17.70;;;;;;;17.11;81.34;101354.08;1735588;82;25440;-56
2023/09/07 06:15:07;;;;;;;23.45;17.73;;;;;;;17.32;81.15;101363.70;1735550;82;27621;-54
2023/09/07 06:17:34;;;;;;;24.60;18.15;;;;;;;17.53;80.85;101361.59;1735614;82;25667;-57
2023/09/07 06:20:00;;;;;;;24.67;17.15;;;;;;;17.69;80.28;101362.64;1735578;82;25669;-57
2023/09/07 06:22:26;;;;;;;26.60;17.50;;;;;;;17.85;80.00;101364.22;1735548;82;26080;-56
2023/09/07 06:24:53;;;;;;;21.48;16.32;;;;;;;17.97;79.26;101361.36;1735618;82;25470;-54
2023/09/07 06:27:19;;;;;;;21.57;15.45;;;;;;;18.05;78.76;101364.61;1735594;82;27469;-55
2023/09/07 06:29:46;;;;;;;23.00;15.05;;;;;;;18.18;78.90;101365.45;1735533;82;25618;-56
2023/09/07 06:32:13;;;;;;;18.52;14.03;;;;;;;18.32;78.58;101370.11;1735573;82;25492;-56
2023/09/07 06:34:40;;;;;;;20.15;15.45;;;;;;;18.45;79.04;101369.58;1735481;82;25481;-56
2023/09/07 06:37:07;;;;;;;21.50;14.80;;;;;;;18.69;79.42;101375.70;1735606;82;25558;-56
2023/09/07 06:39:34;;;;;;;24.72;15.23;;;;;;;18.92;79.35;101376.16;1735635;82;27590;-55
2023/09/07 06:42:01;;;;;;;22.65;15.35;;;;;;;19.13;78.93;101369.79;1716578;82;25487;-57
2023/09/07 06:44:28;;;;;;;17.73;14.15;;;;;;;19.40;78.82;101372.44;1705728;83;25466;-59
2023/09/07 06:46:54;;;;;;;20.62;15.18;;;;;;;19.70;78.90;101365.31;1705687;84;25519;-55
2023/09/07 06:49:21;;;;;;;17.85;14.35;;;;;;;20.02;78.23;101367.69;1705700;84;25588;-56
2023/09/07 06:51:47;;;;;;;15.63;13.05;;;;;;;20.31;77.19;101371.27;1705650;84;27491;-55
2023/09/07 06:54:15;;;;;;;16.00;14.25;;;;;;;20.59;76.77;101370.48;1705606;83;25616;-56
2023/09/07 06:56:41;;;;;;;20.52;13.83;;;;;;;20.92;75.91;101371.56;1705639;83;25543;-56
2023/09/07 06:59:07;;;;;;;20.92;13.30;;;;;;;21.25;75.33;101370.44;1705632;84;26269;-56
2023/09/07 07:01:35;;;;;;;19.15;12.70;;;;;;;21.57;74.57;101369.86;1705771;84;25366;-57
2023/09/07 07:04:02;;;;;;;18.98;13.55;;;;;;;21.91;73.80;101373.53;1705701;83;27836;-56
2023/09/07 07:06:29;;;;;;;19.52;10.95;;;;;;;22.24;73.19;101381.33;1705576;83;25502;-56
2023/09/07 07:08:56;;;;;;;23.55;12.70;;;;;;;22.57;72.22;101375.89;1705691;84;25407;-56
2023/09/07 07:11:22;;;;;;;19.02;12.03;;;;;;;22.85;71.06;101374.81;1705699;84;25588;-57
2023/09/07 07:13:49;;;;;;;15.98;11.45;;;;;;;23.08;70.07;101379.00;1705774;84;25400;-56
2023/09/07 07:16:17;;;;;;;14.70;11.15;;;;;;;23.37;69.14;101378.88;1705928;83;27640;-56
2023/09/07 07:18:44;;;;;;;16.17;10.53;;;;;;;23.68;68.04;101378.34;1705611;84;25644;-53
2023/09/07 07:21:11;;;;;;;15.40;10.60;;;;;;;24.00;67.47;101387.11;1705681;83;25630;-56
2023/09/07 07:23:38;;;;;;;13.18;10.63;;;;;;;24.30;66.60;101379.98;1705612;84;25640;-57
2023/09/07 07:26:05;;;;;;;12.03;9.35;;;;;;;24.58;65.76;101385.84;1705717;83;25607;-57
2023/09/07 07:28:32;;;;;;;14.23;10.78;;;;;;;24.86;64.71;101390.09;1705651;84;27816;-55
2023/09/07 07:30:59;;;;;;;17.05;9.88;;;;;;;25.13;63.72;101389.35;1705543;83;25651;-55
2023/09/07 07:33:25;;;;;;;13.32;9.08;;;;;;;25.39;62.70;101395.09;1686335;84;25497;-55
2023/09/07 07:35:52;;;;;;;10.68;8.78;;;;;;;25.59;61.98;101390.92;1705605;83;26281;-57
2023/09/07 07:38:19;;;;;;;14.93;9.63;;;;;;;25.86;61.54;101389.27;1705708;84;25406;-53
2023/09/07 07:40:47;;;;;;;13.08;9.45;;;;;;;26.14;60.53;101392.81;1705657;84;28519;-56
2023/09/07 07:43:14;;;;;;;12.47;9.00;;;;;;;26.40;59.89;101393.09;1735263;81;25982;-53
2023/09/07 07:45:40;;;;;;;12.30;8.80;;;;;;;26.68;59.38;101401.34;1735535;82;25479;-56
2023/09/07 07:48:07;;;;;;;10.70;8.65;;;;;;;26.88;57.82;101406.52;1735502;82;26056;-57
2023/09/07 07:50:39;;;;;;;11.57;8.48;;;;;;;27.02;57.01;101396.81;1735589;82;25646;-57
2023/09/07 07:53:07;;;;;;;12.88;8.93;;;;;;;27.14;56.06;101403.37;1735214;82;27837;-57
2023/09/07 07:55:38;;;;;;;11.08;8.40;;;;;;;27.34;55.95;101399.61;1735560;82;25602;-56
2023/09/07 07:58:08;;;;;;;11.28;8.68;;;;;;;27.64;55.26;101405.95;1735508;82;25615;-57
2023/09/07 08:00:40;;;;;;;8.95;8.05;;;;;;;27.97;54.50;101406.67;1735428;82;25558;-57
2023/09/07 11:13:05;;;;;;;3.17;2.90;;;;;;;36.64;29.49;101367.28;1868306;76;25281;-52
2023/09/07 11:15:35;;;;;;;6.05;2.90;;;;;;;36.31;29.61;101367.64;1824500;78;25506;-49
2023/09/07 11:18:09;;;;;;;3.10;2.60;;;;;;;35.90;29.63;101369.74;1824360;78;28202;-49
2023/09/07 11:20:39;;;;;;;4.53;3.00;;;;;;;35.49;29.75;101365.23;1824415;78;25433;-49
2023/09/07 11:23:07;;;;;;;6.25;2.72;;;;;;;35.53;30.62;101369.46;1824610;78;25213;-49
2023/09/07 11:25:39;;;;;;;4.17;3.00;;;;;;;35.65;30.30;101363.61;1824599;78;25535;-50
2023/09/07 11:28:07;;;;;;;5.22;2.77;;;;;;;35.97;29.85;101359.47;1824523;78;25551;-53
2023/09/07 11:30:34;;;;;;;;;;;;;;;36.21;29.16;101359.73;1806795;78;29398;-51
2023/09/07 11:33:05;;;;;;;4.83;2.75;;;;;;;36.50;29.04;101357.22;1824420;78;25599;-50
2023/09/07 11:35:33;;;;;;;3.72;3.25;;;;;;;36.83;29.27;101358.90;1824501;78;25556;-50
2023/09/07 11:38:04;;;;;;;4.17;2.65;;;;;;;37.01;28.73;101355.30;1824533;78;25437;-49
2023/09/07 11:40:31;;;;;;;4.03;2.87;;;;;;;37.17;28.58;101355.01;1824506;78;25598;-52
2023/09/07 11:42:58;;;;;;;4.12;2.50;;;;;;;37.38;27.84;101351.89;1824522;78;28042;-49
2023/09/07 11:45:25;;;;;;;3.67;2.70;;;;;;;37.52;27.63;101346.22;1824718;78;27285;-50
2023/09/07 11:47:52;;;;;;;3.62;2.90;;;;;;;37.63;27.28;101344.95;1824847;78;25591;-50
2023/09/07 11:50:18;;;;;;;2.58;2.30;;;;;;;37.75;27.07;101349.05;1824439;78;25526;-52
2023/09/07 11:52:45;;;;;;;6.05;2.35;;;;;;;38.05;27.19;101348.47;1824432;78;25546;-52
2023/09/07 11:55:15;;;;;;;2.77;2.40;;;;;;;38.45;27.03;101348.80;1824418;78;27461;-52
2023/09/07 11:57:41;;;;;;;4.55;2.30;;;;;;;38.77;26.67;101341.57;1824336;78;25614;-49
2023/09/07 12:00:10;;;;;;;4.00;2.10;;;;;;;38.97;26.48;101340.16;1803900;78;25562;-51
2023/09/07 12:02:39;;;;;;;5.28;2.67;;;;;;;38.81;27.24;101340.75;1824385;78;25603;-53
2023/09/07 12:05:08;;;;;;;11.22;2.83;;;;;;;38.52;26.12;101339.97;1824453;78;25387;-53
2023/09/07 12:07:36;;;;;;;7.25;3.20;;;;;;;38.44;26.78;101337.34;1824450;78;27498;-49
2023/09/07 12:10:05;;;;;;;4.75;2.90;;;;;;;38.34;27.07;101338.66;1824588;78;25615;-51
2023/09/07 12:12:31;;;;;;;3.92;2.58;;;;;;;38.34;27.07;101340.06;1824370;78;25470;-50
2023/09/07 12:14:59;;;;;;;5.40;2.37;;;;;;;38.04;26.17;101345.48;1824404;78;25801;-55
2023/09/07 12:17:25;;;;;;;;;;;;;;;37.44;26.99;101341.38;1827153;78;25404;-52
2023/09/07 12:19:51;;;;;;;2.92;1.98;;;;;;;36.95;27.92;101339.65;1824430;78;27558;-52
2023/09/07 12:22:18;;;;;;;2.45;2.25;;;;;;;36.69;27.53;101342.55;1824258;78;25435;-58
2023/09/07 12:24:44;;;;;;;5.45;2.00;;;;;;;36.62;27.86;101338.77;1823861;78;25562;-53
2023/09/07 12:27:10;;;;;;;5.05;2.30;;;;;;;36.44;27.67;101333.11;1823793;78;25573;-53
2023/09/07 12:29:37;;;;;;;3.05;2.40;;;;;;;36.19;27.80;101338.30;1823895;78;25356;-52
2023/09/07 12:32:05;;;;;;;3.30;2.00;;;;;;;35.77;27.67;101337.30;1823824;78;27460;-55
2023/09/07 12:34:31;;;;;;;2.52;2.20;;;;;;;35.20;28.21;101330.30;1823891;78;25601;-54
2023/09/07 12:36:57;;;;;;;2.62;2.42;;;;;;;34.56;28.43;101330.58;1823835;78;25614;-53
2023/09/07 12:39:24;;;;;;;3.30;2.45;;;;;;;33.95;29.00;101330.27;1823832;78;25551;-52
2023/09/07 12:41:50;;;;;;;3.30;2.30;;;;;;;33.39;29.42;101331.44;1823879;78;25559;-56
2023/09/07 12:44:18;;;;;;;20.05;16.17;;;;;;;32.88;29.74;101329.95;1823862;78;27469;-55
2023/09/07 12:46:44;;;;;;;45.52;41.05;;;;;;;32.37;30.32;101319.78;1823919;78;25436;-53
2023/09/07 12:49:10;;;;;;;5.75;3.47;;;;;;;31.86;30.39;101324.27;1823955;78;25533;-56
2023/09/07 12:51:37;;;;;;;4.58;2.85;;;;;;;31.75;31.84;101326.48;1823862;78;25782;-53
2023/09/07 12:54:03;;;;;;;3.85;2.60;;;;;;;32.03;31.98;101321.69;1823974;78;25531;-56
2023/09/07 12:56:30;;;;;;;5.15;2.58;;;;;;;32.50;32.23;101319.23;1823922;78;28105;-54
2023/09/07 12:58:59;;;;;;;2.92;2.45;;;;;;;32.81;32.20;101313.34;1823899;78;25597;-56
2023/09/07 13:01:24;;;;;;;3.67;2.52;;;;;;;33.05;31.48;101302.70;1823760;78;25442;-57
2023/09/07 13:03:50;;;;;;;3.47;2.50;;;;;;;33.35;31.90;101304.13;1823833;78;25535;-57
2023/09/07 13:06:17;;;;;;;2.83;2.50;;;;;;;33.67;31.61;101301.81;1823823;78;25605;-57
2023/09/07 13:08:45;;;;;;;2.45;2.25;;;;;;;33.77;30.60;101297.16;1823919;78;27529;-56
2023/09/07 13:11:12;;;;;;;4.22;2.62;;;;;;;33.67;30.56;101296.20;1823703;78;25429;-57
2023/09/07 13:13:38;;;;;;;3.20;2.90;;;;;;;33.74;30.44;101296.02;1829976;78;25431;-59
2023/09/07 13:16:05;;;;;;;2.45;2.17;;;;;;;33.99;29.99;101291.05;1829848;78;25531;-58
2023/09/07 13:18:31;;;;;;;3.20;2.15;;;;;;;34.18;29.75;101287.85;1829975;77;25548;-57
2023/09/07 13:21:01;;;;;;;3.45;2.52;;;;;;;34.35;29.62;101287.14;1829946;77;28536;-56
2023/09/07 13:23:28;;;;;;;2.80;2.45;;;;;;;34.49;29.31;101288.69;1829850;78;25441;-57
2023/09/07 13:25:58;;;;;;;1.87;1.77;;;;;;;34.64;29.33;101287.60;1830236;78;25400;-53
2023/09/07 13:28:24;;;;;;;2.30;2.10;;;;;;;34.82;29.52;101284.22;1829940;78;25577;-56
2023/09/07 13:30:51;;;;;;;3.52;2.60;;;;;;;34.77;29.66;101289.80;1829947;77;25619;-56
2023/09/07 13:33:17;;;;;;;3.62;2.37;;;;;;;34.72;29.52;101285.34;1829865;77;27461;-56
2023/09/07 13:35:44;;;;;;;3.05;2.60;;;;;;;34.66;29.82;101288.55;1829782;77;25561;-56
2023/09/07 13:38:11;;;;;;;2.80;2.30;;;;;;;34.60;29.49;101286.32;1829872;77;25441;-54
2023/09/07 13:40:37;;;;;;;2.45;2.25;;;;;;;34.52;30.25;101283.58;1829859;77;25523;-58
2023/09/07 13:43:04;;;;;;;4.28;2.33;;;;;;;34.42;30.33;101282.69;1829942;77;25526;-53
2023/09/07 13:45:30;;;;;;;2.90;2.50;;;;;;;34.38;30.50;101282.66;1829872;78;29614;-55
2023/09/07 13:47:56;;;;;;;5.65;2.87;;;;;;;34.22;30.54;101283.55;1829839;77;25431;-53
2023/09/07 13:50:23;;;;;;;2.75;2.52;;;;;;;33.83;30.59;101275.71;1829872;77;25457;-53
2023/09/07 13:52:49;;;;;;;5.58;2.58;;;;;;;33.45;30.40;101279.21;1829840;77;25554;-58
2023/09/07 13:55:16;;;;;;;3.02;2.72;;;;;;;33.04;30.82;101269.52;1830000;78;25539;-55
2023/09/07 13:57:43;;;;;;;2.83;2.63;;;;;;;32.66;31.52;101277.09;1830129;77;27481;-57
2023/09/07 14:00:11;;;;;;;5.37;2.87;;;;;;;32.37;32.22;101279.19;1829788;77;25381;-53
2023/09/07 14:02:37;;;;;;;2.77;2.58;;;;;;;32.14;32.15;101275.92;1830010;78;25436;-54
2023/09/07 14:05:04;;;;;;;3.95;3.52;;;;;;;31.84;32.46;101284.73;1829852;78;25388;-58
2023/09/07 14:07:31;;;;;;;4.10;2.70;;;;;;;31.49;33.04;101280.05;1830029;78;25566;-57
2023/09/07 14:09:57;;;;;;;3.20;2.55;;;;;;;31.13;33.41;101272.38;1829858;78;27975;-55
2023/09/07 14:12:24;;;;;;;5.58;2.75;;;;;;;30.81;33.62;101275.11;1827575;78;25552;-55
2023/09/07 14:14:50;;;;;;;5.08;3.10;;;;;;;30.43;34.71;101280.92;1823772;78;25443;-58
2023/09/07 14:17:17;;;;;;;12.28;10.90;;;;;;;30.43;34.71;101280.92;1823759;78;25598;-55
2023/09/07 14:19:45;;;;;;;5.92;4.28;;;;;;;30.24;35.79;101257.27;1823826;78;25438;-56
2023/09/07 14:22:12;;;;;;;5.90;2.95;;;;;;;30.43;36.22;101278.13;1823887;78;27465;-53
2023/09/07 14:24:38;;;;;;;5.95;4.03;;;;;;;30.43;35.86;101261.39;1823651;78;25408;-54
2023/09/07 14:27:06;;;;;;;8.25;4.03;;;;;;;30.79;36.28;101290.11;1823771;78;25592;-53